sensor_id;sensor_type;location;lat;lon;timestamp;pressure;altitude;pressure_sealevel;temperature;humidity
58072;BME280;60383;46.626;18.866;2022-08-07T00:00:35;100531.56;;;22.06;53.76
58072;BME280;60383;46.626;18.866;2022-08-07T00:03:00;100524.97;;;22.00;53.83
58072;BME280;60383;46.626;18.866;2022-08-07T00:05:27;100534.59;;;22.23;53.40
58072;BME280;60383;46.626;18.866;2022-08-07T00:07:53;100527.78;;;22.18;53.37
58072;BME280;60383;46.626;18.866;2022-08-07T00:10:19;100527.56;;;22.20;53.30
58072;BME280;60383;46.626;18.866;2022-08-07T00:12:47;100524.19;;;22.11;53.56
58072;BME280;60383;46.626;18.866;2022-08-07T00:15:12;100534.97;;;22.08;53.40
58072;BME280;60383;46.626;18.866;2022-08-07T00:17:38;100526.53;;;21.96;53.82
58072;BME280;60383;46.626;18.866;2022-08-07T00:20:04;100521.25;;;21.88;54.00
58072;BME280;60383;46.626;18.866;2022-08-07T00:22:30;100521.94;;;22.01;53.70
58072;BME280;60383;46.626;18.866;2022-08-07T00:24:56;100520.34;;;21.94;53.72
58072;BME280;60383;46.626;18.866;2022-08-07T00:27:21;100513.88;;;21.93;53.63
58072;BME280;60383;46.626;18.866;2022-08-07T00:29:47;100512.25;;;21.67;54.26
58072;BME280;60383;46.626;18.866;2022-08-07T00:32:13;100512.53;;;21.59;54.62
58072;BME280;60383;46.626;18.866;2022-08-07T00:34:39;100523.22;;;21.62;54.48
58072;BME280;60383;46.626;18.866;2022-08-07T00:37:04;100511.22;;;21.61;54.15
58072;BME280;60383;46.626;18.866;2022-08-07T00:39:31;100515.03;;;21.35;55.08
58072;BME280;60383;46.626;18.866;2022-08-07T00:41:58;100513.19;;;21.54;54.74
58072;BME280;60383;46.626;18.866;2022-08-07T00:44:24;100517.94;;;21.47;54.87
58072;BME280;60383;46.626;18.866;2022-08-07T00:46:50;100511.38;;;21.41;55.04
58072;BME280;60383;46.626;18.866;2022-08-07T00:49:16;100520.25;;;21.57;54.75
58072;BME280;60383;46.626;18.866;2022-08-07T00:51:42;100517.88;;;21.60;54.30
58072;BME280;60383;46.626;18.866;2022-08-07T00:54:09;100519.94;;;21.39;55.05
58072;BME280;60383;46.626;18.866;2022-08-07T00:56:35;100532.63;;;21.35;55.17
58072;BME280;60383;46.626;18.866;2022-08-07T00:59:01;100520.13;;;21.45;54.81
58072;BME280;60383;46.626;18.866;2022-08-07T01:01:27;100525.31;;;21.41;54.96
58072;BME280;60383;46.626;18.866;2022-08-07T01:03:52;100529.44;;;21.32;55.19
58072;BME280;60383;46.626;18.866;2022-08-07T01:06:18;100526.03;;;21.30;55.11
58072;BME280;60383;46.626;18.866;2022-08-07T01:08:44;100517.91;;;21.28;55.14
58072;BME280;60383;46.626;18.866;2022-08-07T01:11:11;100526.88;;;21.30;55.17
58072;BME280;60383;46.626;18.866;2022-08-07T01:13:38;100514.69;;;21.31;55.24
58072;BME280;60383;46.626;18.866;2022-08-07T01:16:07;100523.50;;;21.21;55.26
58072;BME280;60383;46.626;18.866;2022-08-07T01:18:33;100520.63;;;21.35;54.90
58072;BME280;60383;46.626;18.866;2022-08-07T01:21:13;100524.50;;;21.34;54.96
58072;BME280;60383;46.626;18.866;2022-08-07T01:23:41;100527.19;;;21.15;55.31
58072;BME280;60383;46.626;18.866;2022-08-07T01:26:12;100526.94;;;21.23;55.17
58072;BME280;60383;46.626;18.866;2022-08-07T01:28:40;100525.00;;;21.24;55.22
58072;BME280;60383;46.626;18.866;2022-08-07T01:31:06;100521.03;;;21.13;55.59
58072;BME280;60383;46.626;18.866;2022-08-07T01:33:32;100521.47;;;21.10;55.58
58072;BME280;60383;46.626;18.866;2022-08-07T01:35:58;100512.47;;;21.08;55.74
58072;BME280;60383;46.626;18.866;2022-08-07T01:38:27;100525.50;;;21.14;55.54
58072;BME280;60383;46.626;18.866;2022-08-07T01:40:57;100519.69;;;20.84;56.15
58072;BME280;60383;46.626;18.866;2022-08-07T01:43:23;100518.75;;;20.97;56.06
58072;BME280;60383;46.626;18.866;2022-08-07T01:45:49;100512.22;;;20.84;56.44
58072;BME280;60383;46.626;18.866;2022-08-07T01:48:15;100514.81;;;20.79;56.43
58072;BME280;60383;46.626;18.866;2022-08-07T01:50:41;100524.56;;;20.95;55.98
58072;BME280;60383;46.626;18.866;2022-08-07T01:53:10;100519.34;;;20.73;56.54
58072;BME280;60383;46.626;18.866;2022-08-07T01:55:41;100518.81;;;20.90;56.01
58072;BME280;60383;46.626;18.866;2022-08-07T01:58:10;100520.41;;;20.72;56.66
58072;BME280;60383;46.626;18.866;2022-08-07T02:00:40;100529.19;;;20.69;56.52
58072;BME280;60383;46.626;18.866;2022-08-07T02:03:10;100520.38;;;20.79;56.62
58072;BME280;60383;46.626;18.866;2022-08-07T02:05:50;100523.94;;;20.93;55.96
58072;BME280;60383;46.626;18.866;2022-08-07T02:08:21;100520.78;;;20.83;56.26
58072;BME280;60383;46.626;18.866;2022-08-07T02:10:48;100513.56;;;20.68;57.05
58072;BME280;60383;46.626;18.866;2022-08-07T02:13:19;100508.78;;;20.82;56.48
58072;BME280;60383;46.626;18.866;2022-08-07T02:15:46;100513.53;;;20.75;56.65
58072;BME280;60383;46.626;18.866;2022-08-07T02:18:14;100519.09;;;20.82;56.64
58072;BME280;60383;46.626;18.866;2022-08-07T02:20:41;100512.47;;;20.76;56.67
58072;BME280;60383;46.626;18.866;2022-08-07T02:23:08;100517.94;;;20.96;56.21
58072;BME280;60383;46.626;18.866;2022-08-07T02:25:36;100532.03;;;21.01;56.29
58072;BME280;60383;46.626;18.866;2022-08-07T02:28:02;100527.53;;;21.00;55.97
58072;BME280;60383;46.626;18.866;2022-08-07T02:30:29;100530.38;;;20.94;56.19
58072;BME280;60383;46.626;18.866;2022-08-07T02:32:55;100524.00;;;20.80;56.75
58072;BME280;60383;46.626;18.866;2022-08-07T02:35:24;100529.56;;;20.80;56.78
58072;BME280;60383;46.626;18.866;2022-08-07T02:37:50;100531.09;;;20.69;56.92
58072;BME280;60383;46.626;18.866;2022-08-07T02:40:16;100524.69;;;20.68;56.99
58072;BME280;60383;46.626;18.866;2022-08-07T02:42:43;100521.03;;;20.68;57.13
58072;BME280;60383;46.626;18.866;2022-08-07T02:45:11;100527.91;;;20.65;57.11
58072;BME280;60383;46.626;18.866;2022-08-07T02:47:38;100539.25;;;20.64;57.37
58072;BME280;60383;46.626;18.866;2022-08-07T02:50:04;100544.72;;;20.38;58.08
58072;BME280;60383;46.626;18.866;2022-08-07T02:52:36;100543.22;;;20.36;58.18
58072;BME280;60383;46.626;18.866;2022-08-07T02:55:07;100546.91;;;20.23;58.30
58072;BME280;60383;46.626;18.866;2022-08-07T02:57:35;100541.69;;;20.47;57.84
58072;BME280;60383;46.626;18.866;2022-08-07T03:00:03;100544.56;;;20.20;58.42
58072;BME280;60383;46.626;18.866;2022-08-07T03:02:29;100541.72;;;20.40;58.04
58072;BME280;60383;46.626;18.866;2022-08-07T03:04:57;100555.88;;;20.32;58.41
58072;BME280;60383;46.626;18.866;2022-08-07T03:07:25;100551.75;;;20.48;57.72
58072;BME280;60383;46.626;18.866;2022-08-07T03:09:51;100550.88;;;20.54;57.62
58072;BME280;60383;46.626;18.866;2022-08-07T03:12:17;100548.59;;;20.31;58.18
58072;BME280;60383;46.626;18.866;2022-08-07T03:14:44;100547.00;;;20.55;57.73
58072;BME280;60383;46.626;18.866;2022-08-07T03:17:09;100550.09;;;20.33;57.90
58072;BME280;60383;46.626;18.866;2022-08-07T03:19:35;100541.28;;;20.43;57.86
58072;BME280;60383;46.626;18.866;2022-08-07T03:22:03;100547.25;;;20.47;57.74
58072;BME280;60383;46.626;18.866;2022-08-07T03:24:29;100553.41;;;20.55;57.68
58072;BME280;60383;46.626;18.866;2022-08-07T03:26:59;100550.22;;;20.52;57.74
58072;BME280;60383;46.626;18.866;2022-08-07T03:29:33;100545.91;;;20.56;57.86
58072;BME280;60383;46.626;18.866;2022-08-07T03:32:01;100544.19;;;20.62;57.40
58072;BME280;60383;46.626;18.866;2022-08-07T03:34:29;100550.19;;;20.72;57.10
58072;BME280;60383;46.626;18.866;2022-08-07T03:36:56;100544.56;;;20.79;56.84
58072;BME280;60383;46.626;18.866;2022-08-07T03:39:23;100549.28;;;20.78;56.90
58072;BME280;60383;46.626;18.866;2022-08-07T03:41:50;100549.28;;;20.71;57.05
58072;BME280;60383;46.626;18.866;2022-08-07T03:44:15;100547.19;;;20.60;57.19
58072;BME280;60383;46.626;18.866;2022-08-07T03:46:41;100547.63;;;20.64;57.27
58072;BME280;60383;46.626;18.866;2022-08-07T03:49:07;100556.66;;;20.52;57.64
58072;BME280;60383;46.626;18.866;2022-08-07T03:51:34;100552.94;;;20.65;57.45
58072;BME280;60383;46.626;18.866;2022-08-07T03:54:00;100556.19;;;20.62;57.68
58072;BME280;60383;46.626;18.866;2022-08-07T03:56:26;100555.06;;;20.70;57.21
58072;BME280;60383;46.626;18.866;2022-08-07T03:58:54;100556.34;;;20.74;57.03
58072;BME280;60383;46.626;18.866;2022-08-07T04:01:21;100565.13;;;20.78;57.01
58072;BME280;60383;46.626;18.866;2022-08-07T04:03:48;100569.13;;;20.88;56.76
58072;BME280;60383;46.626;18.866;2022-08-07T04:06:14;100569.38;;;20.80;56.93
58072;BME280;60383;46.626;18.866;2022-08-07T04:08:40;100573.06;;;20.67;57.22
58072;BME280;60383;46.626;18.866;2022-08-07T04:11:07;100575.06;;;20.99;56.64
58072;BME280;60383;46.626;18.866;2022-08-07T04:13:33;100571.66;;;20.97;56.46
58072;BME280;60383;46.626;18.866;2022-08-07T04:15:59;100581.41;;;20.74;57.17
58072;BME280;60383;46.626;18.866;2022-08-07T04:18:25;100582.03;;;20.83;56.97
58072;BME280;60383;46.626;18.866;2022-08-07T04:20:50;100576.50;;;20.63;57.70
58072;BME280;60383;46.626;18.866;2022-08-07T04:23:17;100580.56;;;20.73;57.25
58072;BME280;60383;46.626;18.866;2022-08-07T04:25:42;100586.88;;;20.94;57.04
58072;BME280;60383;46.626;18.866;2022-08-07T04:28:08;100588.59;;;20.88;57.03
58072;BME280;60383;46.626;18.866;2022-08-07T04:30:37;100597.19;;;21.26;56.08
58072;BME280;60383;46.626;18.866;2022-08-07T04:33:08;100599.25;;;21.37;55.86
58072;BME280;60383;46.626;18.866;2022-08-07T04:35:36;100604.09;;;21.48;55.39
58072;BME280;60383;46.626;18.866;2022-08-07T04:38:08;100600.84;;;21.51;55.39
58072;BME280;60383;46.626;18.866;2022-08-07T04:40:39;100608.81;;;21.48;55.53
58072;BME280;60383;46.626;18.866;2022-08-07T04:43:04;100606.19;;;21.60;55.25
58072;BME280;60383;46.626;18.866;2022-08-07T04:45:41;100610.19;;;21.70;54.93
58072;BME280;60383;46.626;18.866;2022-08-07T04:48:19;100610.34;;;21.76;55.00
58072;BME280;60383;46.626;18.866;2022-08-07T04:50:59;100615.13;;;21.68;54.93
58072;BME280;60383;46.626;18.866;2022-08-07T04:53:36;100616.72;;;21.83;54.72
58072;BME280;60383;46.626;18.866;2022-08-07T04:56:12;100615.75;;;21.96;54.07
58072;BME280;60383;46.626;18.866;2022-08-07T04:58:47;100619.03;;;22.11;54.00
58072;BME280;60383;46.626;18.866;2022-08-07T05:04:37;100625.72;;;22.29;53.45
58072;BME280;60383;46.626;18.866;2022-08-07T05:07:19;100622.00;;;22.16;53.54
58072;BME280;60383;46.626;18.866;2022-08-07T05:10:00;100627.81;;;22.33;53.23
58072;BME280;60383;46.626;18.866;2022-08-07T05:12:34;100626.78;;;22.53;53.22
58072;BME280;60383;46.626;18.866;2022-08-07T05:15:09;100620.72;;;22.56;52.69
58072;BME280;60383;46.626;18.866;2022-08-07T05:17:47;100636.09;;;22.65;52.44
58072;BME280;60383;46.626;18.866;2022-08-07T05:20:16;100633.91;;;22.68;52.46
58072;BME280;60383;46.626;18.866;2022-08-07T05:22:44;100643.22;;;22.61;52.94
58072;BME280;60383;46.626;18.866;2022-08-07T05:25:14;100638.72;;;22.79;52.29
58072;BME280;60383;46.626;18.866;2022-08-07T05:27:41;100641.44;;;22.86;52.25
58072;BME280;60383;46.626;18.866;2022-08-07T05:30:08;100639.34;;;22.81;52.00
58072;BME280;60383;46.626;18.866;2022-08-07T05:32:35;100644.13;;;22.92;51.90
58072;BME280;60383;46.626;18.866;2022-08-07T05:35:02;100640.78;;;23.02;51.75
58072;BME280;60383;46.626;18.866;2022-08-07T05:37:29;100649.09;;;22.90;52.39
58072;BME280;60383;46.626;18.866;2022-08-07T05:39:55;100644.28;;;22.79;52.17
58072;BME280;60383;46.626;18.866;2022-08-07T05:42:21;100644.59;;;22.89;51.86
58072;BME280;60383;46.626;18.866;2022-08-07T05:44:47;100640.78;;;23.02;51.78
58072;BME280;60383;46.626;18.866;2022-08-07T05:47:14;100645.53;;;23.02;51.72
58072;BME280;60383;46.626;18.866;2022-08-07T05:49:46;100643.94;;;23.06;51.67
58072;BME280;60383;46.626;18.866;2022-08-07T05:52:13;100645.75;;;22.81;52.41
58072;BME280;60383;46.626;18.866;2022-08-07T05:54:38;100650.72;;;22.98;52.06
58072;BME280;60383;46.626;18.866;2022-08-07T05:57:05;100654.03;;;23.07;51.87
58072;BME280;60383;46.626;18.866;2022-08-07T05:59:31;100643.19;;;22.98;52.21
58072;BME280;60383;46.626;18.866;2022-08-07T06:02:01;100644.56;;;23.08;51.80
58072;BME280;60383;46.626;18.866;2022-08-07T06:04:27;100650.63;;;23.05;52.08
58072;BME280;60383;46.626;18.866;2022-08-07T06:06:54;100644.09;;;23.11;52.40
58072;BME280;60383;46.626;18.866;2022-08-07T06:09:20;100645.03;;;23.05;52.22
58072;BME280;60383;46.626;18.866;2022-08-07T06:11:46;100646.34;;;23.02;51.97
58072;BME280;60383;46.626;18.866;2022-08-07T06:14:12;100655.75;;;23.08;51.82
58072;BME280;60383;46.626;18.866;2022-08-07T06:16:38;100657.66;;;23.07;52.03
58072;BME280;60383;46.626;18.866;2022-08-07T06:19:04;100665.84;;;22.90;52.36
58072;BME280;60383;46.626;18.866;2022-08-07T06:21:30;100655.25;;;23.11;52.10
58072;BME280;60383;46.626;18.866;2022-08-07T06:23:55;100656.59;;;23.08;52.36
58072;BME280;60383;46.626;18.866;2022-08-07T06:26:21;100660.06;;;23.04;52.63
58072;BME280;60383;46.626;18.866;2022-08-07T06:28:56;100661.03;;;22.97;52.85
58072;BME280;60383;46.626;18.866;2022-08-07T06:31:24;100660.94;;;23.04;53.03
58072;BME280;60383;46.626;18.866;2022-08-07T06:33:50;100658.84;;;23.00;52.90
58072;BME280;60383;46.626;18.866;2022-08-07T06:36:15;100654.28;;;23.05;53.04
58072;BME280;60383;46.626;18.866;2022-08-07T06:38:42;100660.00;;;23.10;53.37
58072;BME280;60383;46.626;18.866;2022-08-07T06:41:16;100660.06;;;23.04;53.48
58072;BME280;60383;46.626;18.866;2022-08-07T06:43:43;100659.78;;;23.42;52.48
58072;BME280;60383;46.626;18.866;2022-08-07T06:46:10;100667.59;;;23.52;52.37
58072;BME280;60383;46.626;18.866;2022-08-07T06:48:36;100669.50;;;23.70;52.03
58072;BME280;60383;46.626;18.866;2022-08-07T06:51:05;100663.47;;;23.85;51.64
58072;BME280;60383;46.626;18.866;2022-08-07T06:53:33;100664.84;;;24.06;51.40
58072;BME280;60383;46.626;18.866;2022-08-07T06:56:03;100660.94;;;23.96;51.50
58072;BME280;60383;46.626;18.866;2022-08-07T06:58:30;100661.50;;;23.86;51.61
58072;BME280;60383;46.626;18.866;2022-08-07T07:00:57;100667.16;;;23.98;51.43
58072;BME280;60383;46.626;18.866;2022-08-07T07:03:23;100654.28;;;24.08;51.62
58072;BME280;60383;46.626;18.866;2022-08-07T07:05:49;100653.44;;;24.44;50.86
58072;BME280;60383;46.626;18.866;2022-08-07T07:08:14;100656.34;;;24.61;50.54
58072;BME280;60383;46.626;18.866;2022-08-07T07:10:40;100660.72;;;24.68;50.29
58072;BME280;60383;46.626;18.866;2022-08-07T07:13:14;100657.84;;;24.92;49.43
58072;BME280;60383;46.626;18.866;2022-08-07T07:15:58;100654.75;;;25.17;49.00
58072;BME280;60383;46.626;18.866;2022-08-07T07:18:29;100644.97;;;25.20;48.78
58072;BME280;60383;46.626;18.866;2022-08-07T07:20:58;100647.72;;;25.32;48.41
58072;BME280;60383;46.626;18.866;2022-08-07T07:23:26;100647.06;;;25.54;48.11
58072;BME280;60383;46.626;18.866;2022-08-07T07:25:58;100645.59;;;25.51;47.87
58072;BME280;60383;46.626;18.866;2022-08-07T07:28:28;100647.97;;;25.42;48.06
58072;BME280;60383;46.626;18.866;2022-08-07T07:31:03;100644.53;;;25.86;47.28
58072;BME280;60383;46.626;18.866;2022-08-07T07:33:31;100648.25;;;25.75;47.23
58072;BME280;60383;46.626;18.866;2022-08-07T07:35:59;100648.06;;;26.10;46.82
58072;BME280;60383;46.626;18.866;2022-08-07T07:38:25;100658.88;;;26.19;46.41
58072;BME280;60383;46.626;18.866;2022-08-07T07:40:53;100660.38;;;26.26;46.24
58072;BME280;60383;46.626;18.866;2022-08-07T07:43:21;100667.25;;;26.53;45.38
58072;BME280;60383;46.626;18.866;2022-08-07T07:45:48;100654.81;;;26.49;45.69
58072;BME280;60383;46.626;18.866;2022-08-07T07:48:19;100660.13;;;26.67;45.09
58072;BME280;60383;46.626;18.866;2022-08-07T07:50:47;100667.41;;;26.46;46.08
58072;BME280;60383;46.626;18.866;2022-08-07T07:53:16;100667.66;;;26.44;46.17
58072;BME280;60383;46.626;18.866;2022-08-07T07:55:42;100664.63;;;26.68;45.86
58072;BME280;60383;46.626;18.866;2022-08-07T07:58:09;100658.44;;;26.66;45.65
58072;BME280;60383;46.626;18.866;2022-08-07T08:00:36;100658.66;;;26.82;45.31
58072;BME280;60383;46.626;18.866;2022-08-07T08:03:05;100659.25;;;27.06;44.74
58072;BME280;60383;46.626;18.866;2022-08-07T08:05:36;100658.03;;;26.97;44.93
58072;BME280;60383;46.626;18.866;2022-08-07T08:08:03;100661.50;;;27.04;45.08
58072;BME280;60383;46.626;18.866;2022-08-07T08:10:29;100658.78;;;27.14;44.86
58072;BME280;60383;46.626;18.866;2022-08-07T08:12:57;100660.06;;;27.29;44.49
58072;BME280;60383;46.626;18.866;2022-08-07T08:15:24;100661.16;;;27.50;43.90
58072;BME280;60383;46.626;18.866;2022-08-07T08:17:50;100666.47;;;27.46;45.03
58072;BME280;60383;46.626;18.866;2022-08-07T08:20:17;100660.94;;;27.84;43.10
58072;BME280;60383;46.626;18.866;2022-08-07T08:22:45;100660.91;;;28.11;43.00
58072;BME280;60383;46.626;18.866;2022-08-07T08:25:32;100667.00;;;28.35;42.12
58072;BME280;60383;46.626;18.866;2022-08-07T08:28:21;100666.63;;;28.21;42.95
58072;BME280;60383;46.626;18.866;2022-08-07T08:30:49;100660.16;;;28.21;43.33
58072;BME280;60383;46.626;18.866;2022-08-07T08:33:19;100668.47;;;28.05;43.38
58072;BME280;60383;46.626;18.866;2022-08-07T08:35:47;100666.63;;;27.89;44.10
58072;BME280;60383;46.626;18.866;2022-08-07T08:38:16;100669.13;;;27.58;45.03
58072;BME280;60383;46.626;18.866;2022-08-07T08:40:52;100668.69;;;27.22;45.10
58072;BME280;60383;46.626;18.866;2022-08-07T08:43:30;100664.28;;;27.04;45.88
58072;BME280;60383;46.626;18.866;2022-08-07T08:48:36;100669.97;;;26.87;46.40
58072;BME280;60383;46.626;18.866;2022-08-07T08:51:25;100672.16;;;27.29;45.58
58072;BME280;60383;46.626;18.866;2022-08-07T08:54:03;100665.53;;;27.63;45.01
58072;BME280;60383;46.626;18.866;2022-08-07T08:56:42;100672.88;;;27.19;45.57
58072;BME280;60383;46.626;18.866;2022-08-07T09:04:52;100676.03;;;27.45;46.00
58072;BME280;60383;46.626;18.866;2022-08-07T09:17:47;100670.16;;;28.87;42.62
58072;BME280;60383;46.626;18.866;2022-08-07T09:25:37;100659.63;;;29.36;41.62
58072;BME280;60383;46.626;18.866;2022-08-07T09:28:20;100652.25;;;29.29;41.91
58072;BME280;60383;46.626;18.866;2022-08-07T09:34:11;100644.63;;;29.25;41.64
58072;BME280;60383;46.626;18.866;2022-08-07T09:44:57;100637.97;;;29.67;40.94
58072;BME280;60383;46.626;18.866;2022-08-07T09:47:54;100632.66;;;30.02;40.34
58072;BME280;60383;46.626;18.866;2022-08-07T09:53:17;100628.41;;;29.58;40.51
58072;BME280;60383;46.626;18.866;2022-08-07T10:21:18;100594.44;;;30.56;38.82
58072;BME280;60383;46.626;18.866;2022-08-07T10:24:03;100593.69;;;31.00;37.78
58072;BME280;60383;46.626;18.866;2022-08-07T10:29:56;100595.06;;;31.53;36.74
58072;BME280;60383;46.626;18.866;2022-08-07T10:32:33;100595.25;;;31.27;36.85
58072;BME280;60383;46.626;18.866;2022-08-07T10:38:13;100587.53;;;31.38;36.94
58072;BME280;60383;46.626;18.866;2022-08-07T10:41:05;100595.13;;;31.88;35.34
58072;BME280;60383;46.626;18.866;2022-08-07T10:43:38;100593.50;;;31.76;35.61
58072;BME280;60383;46.626;18.866;2022-08-07T10:46:24;100580.00;;;31.68;36.02
58072;BME280;60383;46.626;18.866;2022-08-07T10:49:10;100577.94;;;31.74;35.69
58072;BME280;60383;46.626;18.866;2022-08-07T10:51:56;100583.34;;;31.70;36.19
58072;BME280;60383;46.626;18.866;2022-08-07T10:54:41;100594.00;;;30.99;37.72
58072;BME280;60383;46.626;18.866;2022-08-07T10:57:18;100591.22;;;31.38;37.14
58072;BME280;60383;46.626;18.866;2022-08-07T11:00:09;100584.38;;;31.45;36.48
58072;BME280;60383;46.626;18.866;2022-08-07T11:05:40;100582.03;;;31.92;35.91
58072;BME280;60383;46.626;18.866;2022-08-07T11:08:14;100577.56;;;32.15;35.72
58072;BME280;60383;46.626;18.866;2022-08-07T11:10:51;100575.19;;;31.63;36.53
58072;BME280;60383;46.626;18.866;2022-08-07T11:16:03;100578.00;;;31.98;36.22
58072;BME280;60383;46.626;18.866;2022-08-07T11:18:38;100585.69;;;32.27;35.63
58072;BME280;60383;46.626;18.866;2022-08-07T11:26:32;100566.22;;;32.15;35.35
58072;BME280;60383;46.626;18.866;2022-08-07T11:43:16;100563.09;;;32.16;35.49
58072;BME280;60383;46.626;18.866;2022-08-07T11:48:49;100553.31;;;32.33;35.22
58072;BME280;60383;46.626;18.866;2022-08-07T12:05:27;100542.13;;;32.17;35.24
58072;BME280;60383;46.626;18.866;2022-08-07T12:08:01;100537.28;;;32.47;34.81
58072;BME280;60383;46.626;18.866;2022-08-07T12:10:40;100527.06;;;32.46;34.74
58072;BME280;60383;46.626;18.866;2022-08-07T12:13:27;100533.53;;;32.52;35.08
58072;BME280;60383;46.626;18.866;2022-08-07T12:16:10;100526.97;;;32.32;35.34
58072;BME280;60383;46.626;18.866;2022-08-07T12:18:50;100526.38;;;32.36;35.35
58072;BME280;60383;46.626;18.866;2022-08-07T12:21:46;100531.19;;;31.81;36.08
58072;BME280;60383;46.626;18.866;2022-08-07T12:27:01;100522.47;;;31.73;35.75
58072;BME280;60383;46.626;18.866;2022-08-07T12:29:47;100529.22;;;32.06;35.19
58072;BME280;60383;46.626;18.866;2022-08-07T12:32:30;100524.16;;;32.32;35.24
58072;BME280;60383;46.626;18.866;2022-08-07T12:35:02;100526.16;;;32.02;35.81
58072;BME280;60383;46.626;18.866;2022-08-07T12:37:29;100527.78;;;32.09;35.96
58072;BME280;60383;46.626;18.866;2022-08-07T12:39:56;100527.03;;;31.98;36.21
58072;BME280;60383;46.626;18.866;2022-08-07T12:42:26;100523.56;;;32.06;35.82
58072;BME280;60383;46.626;18.866;2022-08-07T12:44:53;100527.19;;;31.82;35.53
58072;BME280;60383;46.626;18.866;2022-08-07T12:47:54;100521.78;;;31.86;35.92
58072;BME280;60383;46.626;18.866;2022-08-07T12:53:10;100518.25;;;31.99;35.38
58072;BME280;60383;46.626;18.866;2022-08-07T12:58:41;100515.38;;;31.75;35.61
58072;BME280;60383;46.626;18.866;2022-08-07T13:13:16;100489.00;;;31.80;35.36
58072;BME280;60383;46.626;18.866;2022-08-07T13:15:58;100491.66;;;31.71;35.44
58072;BME280;60383;46.626;18.866;2022-08-07T13:21:32;100487.56;;;32.07;34.57
58072;BME280;60383;46.626;18.866;2022-08-07T13:24:07;100485.53;;;31.88;35.23
58072;BME280;60383;46.626;18.866;2022-08-07T13:26:42;100486.16;;;31.50;35.39
58072;BME280;60383;46.626;18.866;2022-08-07T13:29:14;100486.03;;;31.66;35.68
58072;BME280;60383;46.626;18.866;2022-08-07T13:31:48;100479.28;;;31.91;34.65
58072;BME280;60383;46.626;18.866;2022-08-07T13:34:27;100476.19;;;31.88;34.85
58072;BME280;60383;46.626;18.866;2022-08-07T13:37:12;100483.75;;;31.63;35.17
58072;BME280;60383;46.626;18.866;2022-08-07T13:39:55;100478.09;;;31.63;35.50
58072;BME280;60383;46.626;18.866;2022-08-07T13:42:24;100481.56;;;31.60;34.99
58072;BME280;60383;46.626;18.866;2022-08-07T13:44:53;100475.28;;;31.63;35.42
58072;BME280;60383;46.626;18.866;2022-08-07T13:47:20;100477.09;;;31.53;35.48
58072;BME280;60383;46.626;18.866;2022-08-07T13:49:51;100470.75;;;31.62;34.82
58072;BME280;60383;46.626;18.866;2022-08-07T13:52:18;100463.31;;;31.42;35.32
58072;BME280;60383;46.626;18.866;2022-08-07T13:54:44;100461.44;;;31.32;35.48
58072;BME280;60383;46.626;18.866;2022-08-07T13:57:11;100459.44;;;31.32;35.43
58072;BME280;60383;46.626;18.866;2022-08-07T13:59:42;100449.25;;;31.31;35.02
58072;BME280;60383;46.626;18.866;2022-08-07T14:02:12;100453.53;;;31.29;34.56
58072;BME280;60383;46.626;18.866;2022-08-07T14:04:51;100450.63;;;31.34;34.31
58072;BME280;60383;46.626;18.866;2022-08-07T14:07:21;100448.00;;;31.13;34.67
58072;BME280;60383;46.626;18.866;2022-08-07T14:09:51;100451.19;;;31.36;34.12
58072;BME280;60383;46.626;18.866;2022-08-07T14:12:25;100450.25;;;31.46;33.36
58072;BME280;60383;46.626;18.866;2022-08-07T14:14:55;100438.84;;;31.27;34.27
58072;BME280;60383;46.626;18.866;2022-08-07T14:17:25;100443.34;;;31.28;33.84
58072;BME280;60383;46.626;18.866;2022-08-07T14:19:58;100440.31;;;31.48;33.45
58072;BME280;60383;46.626;18.866;2022-08-07T14:22:26;100450.06;;;31.37;33.79
58072;BME280;60383;46.626;18.866;2022-08-07T14:24:56;100439.06;;;31.35;33.71
58072;BME280;60383;46.626;18.866;2022-08-07T14:27:35;100448.41;;;31.60;33.36
58072;BME280;60383;46.626;18.866;2022-08-07T14:30:12;100434.16;;;31.46;33.97
58072;BME280;60383;46.626;18.866;2022-08-07T14:32:43;100437.47;;;31.53;34.00
58072;BME280;60383;46.626;18.866;2022-08-07T14:35:20;100441.06;;;31.30;33.61
58072;BME280;60383;46.626;18.866;2022-08-07T14:37:49;100434.88;;;31.28;33.49
58072;BME280;60383;46.626;18.866;2022-08-07T14:40:19;100428.84;;;31.00;34.10
58072;BME280;60383;46.626;18.866;2022-08-07T14:42:57;100429.34;;;31.07;34.23
58072;BME280;60383;46.626;18.866;2022-08-07T14:45:31;100430.53;;;31.01;34.48
58072;BME280;60383;46.626;18.866;2022-08-07T14:48:00;100428.81;;;31.10;34.33
58072;BME280;60383;46.626;18.866;2022-08-07T14:50:28;100426.78;;;31.16;34.07
58072;BME280;60383;46.626;18.866;2022-08-07T14:52:54;100423.59;;;31.22;33.84
58072;BME280;60383;46.626;18.866;2022-08-07T14:55:21;100419.19;;;31.11;34.15
58072;BME280;60383;46.626;18.866;2022-08-07T14:57:49;100428.53;;;31.06;33.93
58072;BME280;60383;46.626;18.866;2022-08-07T15:00:16;100413.81;;;31.04;34.26
58072;BME280;60383;46.626;18.866;2022-08-07T15:02:47;100425.75;;;30.96;34.69
58072;BME280;60383;46.626;18.866;2022-08-07T15:05:14;100413.13;;;30.88;34.65
58072;BME280;60383;46.626;18.866;2022-08-07T15:07:43;100412.69;;;30.71;35.48
58072;BME280;60383;46.626;18.866;2022-08-07T15:10:19;100405.97;;;30.62;35.27
58072;BME280;60383;46.626;18.866;2022-08-07T15:12:46;100410.53;;;30.52;36.71
58072;BME280;60383;46.626;18.866;2022-08-07T15:15:15;100399.22;;;30.57;36.20